sensor_id;sensor_type;location;lat;lon;timestamp;temperature;humidity
22194;DHT22;11262;50.308;9.270;2022-07-21T00:01:32;20.20;99.90
22194;DHT22;11262;50.308;9.270;2022-07-21T00:03:58;20.20;99.90
22194;DHT22;11262;50.308;9.270;2022-07-21T00:06:24;20.20;99.90
22194;DHT22;11262;50.308;9.270;2022-07-21T00:08:49;20.10;99.90
22194;DHT22;11262;50.308;9.270;2022-07-21T00:11:15;20.10;99.90
22194;DHT22;11262;50.308;9.270;2022-07-21T00:13:41;20.10;99.90
22194;DHT22;11262;50.308;9.270;2022-07-21T00:16:06;20.10;99.90
22194;DHT22;11262;50.308;9.270;2022-07-21T00:18:32;20.00;99.90
22194;DHT22;11262;50.308;9.270;2022-07-21T00:21:00;20.00;99.90
22194;DHT22;11262;50.308;9.270;2022-07-21T00:23:26;20.10;99.90
22194;DHT22;11262;50.308;9.270;2022-07-21T00:25:52;20.00;99.90
22194;DHT22;11262;50.308;9.270;2022-07-21T00:28:19;19.90;99.90
22194;DHT22;11262;50.308;9.270;2022-07-21T00:30:45;19.90;99.90
22194;DHT22;11262;50.308;9.270;2022-07-21T00:33:11;19.90;99.90
22194;DHT22;11262;50.308;9.270;2022-07-21T00:35:37;19.80;99.90
22194;DHT22;11262;50.308;9.270;2022-07-21T00:38:03;19.80;99.90
22194;DHT22;11262;50.308;9.270;2022-07-21T00:40:29;19.70;99.90
22194;DHT22;11262;50.308;9.270;2022-07-21T00:42:55;19.80;99.90
22194;DHT22;11262;50.308;9.270;2022-07-21T00:45:20;19.70;99.90
22194;DHT22;11262;50.308;9.270;2022-07-21T00:47:46;19.70;99.90
22194;DHT22;11262;50.308;9.270;2022-07-21T00:50:19;19.70;99.90
22194;DHT22;11262;50.308;9.270;2022-07-21T00:52:46;19.70;99.90
22194;DHT22;11262;50.308;9.270;2022-07-21T00:55:14;19.70;99.90
22194;DHT22;11262;50.308;9.270;2022-07-21T00:57:41;19.70;99.90
22194;DHT22;11262;50.308;9.270;2022-07-21T01:00:11;19.70;99.90
22194;DHT22;11262;50.308;9.270;2022-07-21T01:02:36;19.80;99.90
22194;DHT22;11262;50.308;9.270;2022-07-21T01:05:08;19.70;99.90
22194;DHT22;11262;50.308;9.270;2022-07-21T01:07:41;19.60;99.90
22194;DHT22;11262;50.308;9.270;2022-07-21T01:10:09;19.50;99.90
22194;DHT22;11262;50.308;9.270;2022-07-21T01:12:34;19.60;99.90
22194;DHT22;11262;50.308;9.270;2022-07-21T01:15:00;19.60;99.90
22194;DHT22;11262;50.308;9.270;2022-07-21T01:17:26;19.60;99.90
22194;DHT22;11262;50.308;9.270;2022-07-21T01:19:52;19.60;99.90
22194;DHT22;11262;50.308;9.270;2022-07-21T01:22:18;19.70;99.90
22194;DHT22;11262;50.308;9.270;2022-07-21T01:24:43;19.70;99.90
22194;DHT22;11262;50.308;9.270;2022-07-21T01:27:09;19.80;99.90
22194;DHT22;11262;50.308;9.270;2022-07-21T01:29:34;19.70;99.90
22194;DHT22;11262;50.308;9.270;2022-07-21T01:32:00;19.80;99.90
22194;DHT22;11262;50.308;9.270;2022-07-21T01:34:28;19.80;99.90
22194;DHT22;11262;50.308;9.270;2022-07-21T01:36:53;19.80;99.90
22194;DHT22;11262;50.308;9.270;2022-07-21T01:39:19;19.80;99.90
22194;DHT22;11262;50.308;9.270;2022-07-21T01:42:03;19.80;99.90
22194;DHT22;11262;50.308;9.270;2022-07-21T01:44:29;19.80;99.90
22194;DHT22;11262;50.308;9.270;2022-07-21T01:46:55;19.80;99.90
22194;DHT22;11262;50.308;9.270;2022-07-21T01:49:21;19.70;99.90
22194;DHT22;11262;50.308;9.270;2022-07-21T01:51:47;19.80;99.90
22194;DHT22;11262;50.308;9.270;2022-07-21T01:54:13;19.80;99.90
22194;DHT22;11262;50.308;9.270;2022-07-21T01:56:39;19.80;99.90
22194;DHT22;11262;50.308;9.270;2022-07-21T01:59:06;19.80;99.90
22194;DHT22;11262;50.308;9.270;2022-07-21T02:01:33;19.80;99.90
22194;DHT22;11262;50.308;9.270;2022-07-21T02:04:00;19.80;99.90
22194;DHT22;11262;50.308;9.270;2022-07-21T02:06:27;19.70;99.90
22194;DHT22;11262;50.308;9.270;2022-07-21T02:08:52;19.70;99.90
22194;DHT22;11262;50.308;9.270;2022-07-21T02:11:18;19.80;99.90
22194;DHT22;11262;50.308;9.270;2022-07-21T02:13:45;19.70;99.90
22194;DHT22;11262;50.308;9.270;2022-07-21T02:16:11;19.70;99.90
22194;DHT22;11262;50.308;9.270;2022-07-21T02:18:37;19.70;99.90
22194;DHT22;11262;50.308;9.270;2022-07-21T02:21:04;19.60;99.90
22194;DHT22;11262;50.308;9.270;2022-07-21T02:23:30;19.70;99.90
22194;DHT22;11262;50.308;9.270;2022-07-21T02:25:55;19.60;99.90
22194;DHT22;11262;50.308;9.270;2022-07-21T02:28:22;19.60;99.90
22194;DHT22;11262;50.308;9.270;2022-07-21T02:30:49;19.70;99.90
22194;DHT22;11262;50.308;9.270;2022-07-21T02:33:15;19.60;99.90
22194;DHT22;11262;50.308;9.270;2022-07-21T02:35:41;19.70;99.90
22194;DHT22;11262;50.308;9.270;2022-07-21T02:38:07;19.70;99.90
22194;DHT22;11262;50.308;9.270;2022-07-21T02:40:33;19.60;99.90
22194;DHT22;11262;50.308;9.270;2022-07-21T02:43:00;19.60;99.90
22194;DHT22;11262;50.308;9.270;2022-07-21T02:45:26;19.60;99.90
22194;DHT22;11262;50.308;9.270;2022-07-21T02:47:56;19.60;99.90
22194;DHT22;11262;50.308;9.270;2022-07-21T02:50:34;19.60;99.90
22194;DHT22;11262;50.308;9.270;2022-07-21T02:53:02;19.60;99.90
22194;DHT22;11262;50.308;9.270;2022-07-21T02:55:28;19.50;99.90
22194;DHT22;11262;50.308;9.270;2022-07-21T02:58:15;19.50;99.90
22194;DHT22;11262;50.308;9.270;2022-07-21T03:00:43;19.50;99.90
22194;DHT22;11262;50.308;9.270;2022-07-21T03:03:10;19.50;99.90
22194;DHT22;11262;50.308;9.270;2022-07-21T03:05:36;19.50;99.90
22194;DHT22;11262;50.308;9.270;2022-07-21T03:08:03;19.50;99.90
22194;DHT22;11262;50.308;9.270;2022-07-21T03:10:29;19.50;99.90
22194;DHT22;11262;50.308;9.270;2022-07-21T03:12:55;19.50;99.90
22194;DHT22;11262;50.308;9.270;2022-07-21T03:15:21;19.50;99.90
22194;DHT22;11262;50.308;9.270;2022-07-21T03:17:47;19.50;99.90
22194;DHT22;11262;50.308;9.270;2022-07-21T03:20:13;19.40;99.90
22194;DHT22;11262;50.308;9.270;2022-07-21T03:22:38;19.40;99.90
22194;DHT22;11262;50.308;9.270;2022-07-21T03:25:05;19.50;99.90
22194;DHT22;11262;50.308;9.270;2022-07-21T03:27:31;19.40;99.90
22194;DHT22;11262;50.308;9.270;2022-07-21T03:30:03;19.50;99.90
22194;DHT22;11262;50.308;9.270;2022-07-21T03:32:28;19.50;99.90
22194;DHT22;11262;50.308;9.270;2022-07-21T03:34:54;19.50;99.90
22194;DHT22;11262;50.308;9.270;2022-07-21T03:37:20;19.50;99.90
22194;DHT22;11262;50.308;9.270;2022-07-21T03:39:45;19.40;99.90
22194;DHT22;11262;50.308;9.270;2022-07-21T03:42:11;19.30;99.90
22194;DHT22;11262;50.308;9.270;2022-07-21T03:44:36;19.30;99.90
22194;DHT22;11262;50.308;9.270;2022-07-21T03:47:02;19.30;99.90
22194;DHT22;11262;50.308;9.270;2022-07-21T03:49:28;19.20;99.90
22194;DHT22;11262;50.308;9.270;2022-07-21T03:51:54;19.20;99.90
22194;DHT22;11262;50.308;9.270;2022-07-21T03:54:19;19.10;99.90
22194;DHT22;11262;50.308;9.270;2022-07-21T03:56:45;19.00;99.90
22194;DHT22;11262;50.308;9.270;2022-07-21T03:59:11;19.00;99.90
22194;DHT22;11262;50.308;9.270;2022-07-21T04:01:36;18.90;99.90
22194;DHT22;11262;50.308;9.270;2022-07-21T04:04:02;18.90;99.90
22194;DHT22;11262;50.308;9.270;2022-07-21T04:06:28;18.90;99.90
22194;DHT22;11262;50.308;9.270;2022-07-21T04:08:53;18.90;99.90
22194;DHT22;11262;50.308;9.270;2022-07-21T04:11:19;18.90;99.90
22194;DHT22;11262;50.308;9.270;2022-07-21T04:13:44;18.90;99.90
22194;DHT22;11262;50.308;9.270;2022-07-21T04:16:10;18.90;99.90
22194;DHT22;11262;50.308;9.270;2022-07-21T04:18:36;18.80;99.90
22194;DHT22;11262;50.308;9.270;2022-07-21T04:21:01;18.80;99.90
22194;DHT22;11262;50.308;9.270;2022-07-21T04:23:27;18.80;99.90
22194;DHT22;11262;50.308;9.270;2022-07-21T04:25:53;18.80;99.90
22194;DHT22;11262;50.308;9.270;2022-07-21T04:28:18;18.80;99.90
22194;DHT22;11262;50.308;9.270;2022-07-21T04:30:44;18.80;99.90
22194;DHT22;11262;50.308;9.270;2022-07-21T04:33:10;18.80;99.90
22194;DHT22;11262;50.308;9.270;2022-07-21T04:35:35;18.70;99.90
22194;DHT22;11262;50.308;9.270;2022-07-21T04:38:01;18.80;99.90
22194;DHT22;11262;50.308;9.270;2022-07-21T04:40:26;18.70;99.90
22194;DHT22;11262;50.308;9.270;2022-07-21T04:42:52;18.70;99.90
22194;DHT22;11262;50.308;9.270;2022-07-21T04:45:18;18.70;99.90
22194;DHT22;11262;50.308;9.270;2022-07-21T04:47:44;18.70;99.90
22194;DHT22;11262;50.308;9.270;2022-07-21T04:50:10;18.80;99.90
22194;DHT22;11262;50.308;9.270;2022-07-21T04:52:36;18.80;99.90
22194;DHT22;11262;50.308;9.270;2022-07-21T04:55:01;18.70;99.90
22194;DHT22;11262;50.308;9.270;2022-07-21T04:57:27;18.70;99.90
22194;DHT22;11262;50.308;9.270;2022-07-21T04:59:52;18.70;99.90
22194;DHT22;11262;50.308;9.270;2022-07-21T05:02:18;18.60;99.90
22194;DHT22;11262;50.308;9.270;2022-07-21T05:04:43;18.70;99.90
22194;DHT22;11262;50.308;9.270;2022-07-21T05:07:09;18.60;99.90
22194;DHT22;11262;50.308;9.270;2022-07-21T05:09:35;18.70;99.90
22194;DHT22;11262;50.308;9.270;2022-07-21T05:12:00;18.70;99.90
22194;DHT22;11262;50.308;9.270;2022-07-21T05:14:26;18.70;99.90
22194;DHT22;11262;50.308;9.270;2022-07-21T05:16:51;18.60;99.90
22194;DHT22;11262;50.308;9.270;2022-07-21T05:19:17;18.60;99.90
22194;DHT22;11262;50.308;9.270;2022-07-21T05:21:43;18.60;99.90
22194;DHT22;11262;50.308;9.270;2022-07-21T05:24:09;18.50;99.90
22194;DHT22;11262;50.308;9.270;2022-07-21T05:26:35;18.50;99.90
22194;DHT22;11262;50.308;9.270;2022-07-21T05:29:01;18.50;99.90
22194;DHT22;11262;50.308;9.270;2022-07-21T05:31:26;18.50;99.90
22194;DHT22;11262;50.308;9.270;2022-07-21T05:33:52;18.60;99.90
22194;DHT22;11262;50.308;9.270;2022-07-21T05:36:18;18.70;99.90
22194;DHT22;11262;50.308;9.270;2022-07-21T05:38:46;18.70;99.90
22194;DHT22;11262;50.308;9.270;2022-07-21T05:41:12;18.70;99.90
22194;DHT22;11262;50.308;9.270;2022-07-21T05:43:38;18.70;99.90
22194;DHT22;11262;50.308;9.270;2022-07-21T05:46:03;18.70;99.90
22194;DHT22;11262;50.308;9.270;2022-07-21T05:48:29;18.80;99.90
22194;DHT22;11262;50.308;9.270;2022-07-21T05:50:54;18.90;99.90
22194;DHT22;11262;50.308;9.270;2022-07-21T05:53:20;18.90;99.90
22194;DHT22;11262;50.308;9.270;2022-07-21T05:55:46;18.90;99.90
22194;DHT22;11262;50.308;9.270;2022-07-21T05:58:11;18.90;99.90
22194;DHT22;11262;50.308;9.270;2022-07-21T06:00:37;19.00;99.90
22194;DHT22;11262;50.308;9.270;2022-07-21T06:03:03;18.90;99.90
22194;DHT22;11262;50.308;9.270;2022-07-21T06:05:28;18.90;99.90
22194;DHT22;11262;50.308;9.270;2022-07-21T06:07:54;18.90;99.90
22194;DHT22;11262;50.308;9.270;2022-07-21T06:10:20;18.90;99.90
22194;DHT22;11262;50.308;9.270;2022-07-21T06:12:45;19.10;99.90
22194;DHT22;11262;50.308;9.270;2022-07-21T06:15:12;19.10;99.90
22194;DHT22;11262;50.308;9.270;2022-07-21T06:17:45;19.10;99.90
22194;DHT22;11262;50.308;9.270;2022-07-21T06:20:11;19.00;99.90
22194;DHT22;11262;50.308;9.270;2022-07-21T06:22:37;19.10;99.90
22194;DHT22;11262;50.308;9.270;2022-07-21T06:25:03;19.00;99.90
22194;DHT22;11262;50.308;9.270;2022-07-21T06:27:30;19.10;99.90
22194;DHT22;11262;50.308;9.270;2022-07-21T06:29:57;19.20;99.90
22194;DHT22;11262;50.308;9.270;2022-07-21T06:32:24;19.30;99.90
22194;DHT22;11262;50.308;9.270;2022-07-21T06:34:50;19.40;99.90
22194;DHT22;11262;50.308;9.270;2022-07-21T06:37:16;19.40;99.90
22194;DHT22;11262;50.308;9.270;2022-07-21T06:39:41;19.40;99.90
22194;DHT22;11262;50.308;9.270;2022-07-21T06:42:08;19.50;99.90
22194;DHT22;11262;50.308;9.270;2022-07-21T06:44:34;19.50;99.90
22194;DHT22;11262;50.308;9.270;2022-07-21T06:46:59;19.60;99.90
22194;DHT22;11262;50.308;9.270;2022-07-21T06:49:33;19.60;99.90
22194;DHT22;11262;50.308;9.270;2022-07-21T06:51:59;19.70;99.90
22194;DHT22;11262;50.308;9.270;2022-07-21T06:54:25;19.70;99.90
22194;DHT22;11262;50.308;9.270;2022-07-21T06:56:50;19.60;99.90
22194;DHT22;11262;50.308;9.270;2022-07-21T06:59:16;19.60;99.90
22194;DHT22;11262;50.308;9.270;2022-07-21T07:01:42;19.60;99.90
22194;DHT22;11262;50.308;9.270;2022-07-21T07:04:07;19.60;99.90
22194;DHT22;11262;50.308;9.270;2022-07-21T07:06:33;19.60;99.90
22194;DHT22;11262;50.308;9.270;2022-07-21T07:08:59;19.50;99.90
22194;DHT22;11262;50.308;9.270;2022-07-21T07:11:24;19.50;99.90
22194;DHT22;11262;50.308;9.270;2022-07-21T07:13:50;19.60;99.90
22194;DHT22;11262;50.308;9.270;2022-07-21T07:16:16;19.70;99.90
22194;DHT22;11262;50.308;9.270;2022-07-21T07:18:41;19.80;99.90
22194;DHT22;11262;50.308;9.270;2022-07-21T07:21:07;20.10;99.90
22194;DHT22;11262;50.308;9.270;2022-07-21T07:23:32;20.20;99.90
22194;DHT22;11262;50.308;9.270;2022-07-21T07:25:58;20.30;99.90
22194;DHT22;11262;50.308;9.270;2022-07-21T07:28:24;20.30;99.90
22194;DHT22;11262;50.308;9.270;2022-07-21T07:30:49;20.30;99.90
22194;DHT22;11262;50.308;9.270;2022-07-21T07:33:15;20.30;99.90
22194;DHT22;11262;50.308;9.270;2022-07-21T07:35:41;20.20;99.90
22194;DHT22;11262;50.308;9.270;2022-07-21T07:38:06;20.00;99.90
22194;DHT22;11262;50.308;9.270;2022-07-21T07:40:32;19.90;99.90
22194;DHT22;11262;50.308;9.270;2022-07-21T07:42:58;20.00;99.90
22194;DHT22;11262;50.308;9.270;2022-07-21T07:45:24;20.10;99.90
22194;DHT22;11262;50.308;9.270;2022-07-21T07:47:51;20.10;99.90
22194;DHT22;11262;50.308;9.270;2022-07-21T07:50:16;20.20;99.90
22194;DHT22;11262;50.308;9.270;2022-07-21T07:52:43;20.20;99.90
22194;DHT22;11262;50.308;9.270;2022-07-21T07:55:10;20.20;99.90
22194;DHT22;11262;50.308;9.270;2022-07-21T07:57:38;20.30;99.90
22194;DHT22;11262;50.308;9.270;2022-07-21T08:00:08;20.30;99.90
22194;DHT22;11262;50.308;9.270;2022-07-21T08:02:34;20.60;99.90
22194;DHT22;11262;50.308;9.270;2022-07-21T08:05:00;20.50;99.90
22194;DHT22;11262;50.308;9.270;2022-07-21T08:07:26;20.70;99.90
22194;DHT22;11262;50.308;9.270;2022-07-21T08:09:52;21.00;99.90
22194;DHT22;11262;50.308;9.270;2022-07-21T08:12:17;21.00;99.90
22194;DHT22;11262;50.308;9.270;2022-07-21T08:14:43;20.80;99.90
22194;DHT22;11262;50.308;9.270;2022-07-21T08:17:09;20.60;99.90
22194;DHT22;11262;50.308;9.270;2022-07-21T08:19:35;20.70;99.90
22194;DHT22;11262;50.308;9.270;2022-07-21T08:22:00;20.80;99.90
22194;DHT22;11262;50.308;9.270;2022-07-21T08:24:27;20.80;99.90
22194;DHT22;11262;50.308;9.270;2022-07-21T08:26:52;20.70;99.90
22194;DHT22;11262;50.308;9.270;2022-07-21T08:29:18;20.70;99.90
22194;DHT22;11262;50.308;9.270;2022-07-21T08:31:44;20.90;99.90
22194;DHT22;11262;50.308;9.270;2022-07-21T08:34:09;20.90;99.90
22194;DHT22;11262;50.308;9.270;2022-07-21T08:36:35;21.00;99.90
22194;DHT22;11262;50.308;9.270;2022-07-21T08:39:00;21.00;99.90
22194;DHT22;11262;50.308;9.270;2022-07-21T08:41:26;20.90;99.90
22194;DHT22;11262;50.308;9.270;2022-07-21T08:43:52;20.90;99.90
22194;DHT22;11262;50.308;9.270;2022-07-21T08:46:21;20.80;99.90
22194;DHT22;11262;50.308;9.270;2022-07-21T08:48:47;20.70;99.90
22194;DHT22;11262;50.308;9.270;2022-07-21T08:51:13;20.60;99.90
22194;DHT22;11262;50.308;9.270;2022-07-21T08:53:44;20.60;99.90
22194;DHT22;11262;50.308;9.270;2022-07-21T08:56:10;20.50;99.90
22194;DHT22;11262;50.308;9.270;2022-07-21T08:58:35;20.60;99.90
22194;DHT22;11262;50.308;9.270;2022-07-21T09:01:02;20.80;99.90
22194;DHT22;11262;50.308;9.270;2022-07-21T09:03:28;20.80;99.90
22194;DHT22;11262;50.308;9.270;2022-07-21T09:06:12;20.90;99.90
22194;DHT22;11262;50.308;9.270;2022-07-21T09:08:50;21.00;99.90
22194;DHT22;11262;50.308;9.270;2022-07-21T09:11:25;21.10;99.90
22194;DHT22;11262;50.308;9.270;2022-07-21T09:14:14;21.10;99.90
22194;DHT22;11262;50.308;9.270;2022-07-21T09:19:18;21.20;99.90
22194;DHT22;11262;50.308;9.270;2022-07-21T09:21:44;21.10;99.90
22194;DHT22;11262;50.308;9.270;2022-07-21T09:27:05;21.00;99.90
22194;DHT22;11262;50.308;9.270;2022-07-21T09:29:47;21.30;99.90
22194;DHT22;11262;50.308;9.270;2022-07-21T09:32:17;21.40;99.90
22194;DHT22;11262;50.308;9.270;2022-07-21T09:34:45;21.80;99.90
22194;DHT22;11262;50.308;9.270;2022-07-21T09:37:11;22.00;99.90
22194;DHT22;11262;50.308;9.270;2022-07-21T09:39:52;22.20;99.90
22194;DHT22;11262;50.308;9.270;2022-07-21T09:42:25;22.30;99.90
22194;DHT22;11262;50.308;9.270;2022-07-21T09:44:54;22.50;99.90
22194;DHT22;11262;50.308;9.270;2022-07-21T09:47:22;22.30;99.90
22194;DHT22;11262;50.308;9.270;2022-07-21T09:49:48;22.20;99.90
22194;DHT22;11262;50.308;9.270;2022-07-21T09:52:38;22.10;99.90
22194;DHT22;11262;50.308;9.270;2022-07-21T09:55:06;22.00;99.90
22194;DHT22;11262;50.308;9.270;2022-07-21T09:57:33;22.00;99.90
22194;DHT22;11262;50.308;9.270;2022-07-21T09:59:59;22.40;99.90
22194;DHT22;11262;50.308;9.270;2022-07-21T10:02:26;22.60;99.90
22194;DHT22;11262;50.308;9.270;2022-07-21T10:07:29;23.10;99.90
22194;DHT22;11262;50.308;9.270;2022-07-21T10:09:56;23.20;99.90
22194;DHT22;11262;50.308;9.270;2022-07-21T10:12:24;23.10;99.90
22194;DHT22;11262;50.308;9.270;2022-07-21T10:14:50;23.00;99.90
22194;DHT22;11262;50.308;9.270;2022-07-21T10:17:18;22.90;99.90
22194;DHT22;11262;50.308;9.270;2022-07-21T10:25:16;23.50;99.90
22194;DHT22;11262;50.308;9.270;2022-07-21T10:30:41;24.20;99.90
22194;DHT22;11262;50.308;9.270;2022-07-21T10:33:08;24.10;99.90
22194;DHT22;11262;50.308;9.270;2022-07-21T10:35:34;24.00;99.90
22194;DHT22;11262;50.308;9.270;2022-07-21T10:38:01;24.20;99.90
22194;DHT22;11262;50.308;9.270;2022-07-21T10:45:41;24.20;99.90
22194;DHT22;11262;50.308;9.270;2022-07-21T10:51:11;24.10;99.90
22194;DHT22;11262;50.308;9.270;2022-07-21T10:53:37;24.00;99.90
22194;DHT22;11262;50.308;9.270;2022-07-21T10:56:03;24.10;99.90
22194;DHT22;11262;50.308;9.270;2022-07-21T11:03:35;23.80;99.90
22194;DHT22;11262;50.308;9.270;2022-07-21T11:06:40;23.80;99.90
22194;DHT22;11262;50.308;9.270;2022-07-21T11:11:32;24.10;99.90
22194;DHT22;11262;50.308;9.270;2022-07-21T11:14:12;24.10;99.90
22194;DHT22;11262;50.308;9.270;2022-07-21T11:25:10;23.40;99.90
22194;DHT22;11262;50.308;9.270;2022-07-21T11:27:37;23.70;99.90
22194;DHT22;11262;50.308;9.270;2022-07-21T11:30:07;23.90;99.90
22194;DHT22;11262;50.308;9.270;2022-07-21T11:32:33;23.80;99.90
22194;DHT22;11262;50.308;9.270;2022-07-21T11:35:01;23.90;99.90
22194;DHT22;11262;50.308;9.270;2022-07-21T11:37:42;23.90;99.90
22194;DHT22;11262;50.308;9.270;2022-07-21T11:40:10;24.00;99.90
22194;DHT22;11262;50.308;9.270;2022-07-21T11:42:40;23.90;99.90
22194;DHT22;11262;50.308;9.270;2022-07-21T11:45:08;23.70;99.90
22194;DHT22;11262;50.308;9.270;2022-07-21T11:47:35;23.60;99.90
22194;DHT22;11262;50.308;9.270;2022-07-21T11:50:03;23.70;99.90
22194;DHT22;11262;50.308;9.270;2022-07-21T11:52:33;23.70;99.90
22194;DHT22;11262;50.308;9.270;2022-07-21T11:55:01;23.80;99.90
22194;DHT22;11262;50.308;9.270;2022-07-21T11:57:27;23.80;99.90
22194;DHT22;11262;50.308;9.270;2022-07-21T11:59:54;23.80;99.90
22194;DHT22;11262;50.308;9.270;2022-07-21T12:02:27;23.70;99.90
22194;DHT22;11262;50.308;9.270;2022-07-21T12:04:58;23.80;99.90
22194;DHT22;11262;50.308;9.270;2022-07-21T12:07:36;23.90;99.90
22194;DHT22;11262;50.308;9.270;2022-07-21T12:10:08;23.80;99.90
22194;DHT22;11262;50.308;9.270;2022-07-21T12:13:18;23.60;99.90
22194;DHT22;11262;50.308;9.270;2022-07-21T12:15:27;23.40;99.90
22194;DHT22;11262;50.308;9.270;2022-07-21T12:20:34;23.20;99.90
22194;DHT22;11262;50.308;9.270;2022-07-21T12:23:01;23.20;99.90
22194;DHT22;11262;50.308;9.270;2022-07-21T12:25:35;23.30;99.90
22194;DHT22;11262;50.308;9.270;2022-07-21T12:28:02;23.20;99.90
22194;DHT22;11262;50.308;9.270;2022-07-21T12:33:05;23.40;99.90
22194;DHT22;11262;50.308;9.270;2022-07-21T12:35:32;23.40;99.90
22194;DHT22;11262;50.308;9.270;2022-07-21T12:40:37;23.30;99.90
22194;DHT22;11262;50.308;9.270;2022-07-21T12:43:08;23.40;99.90
22194;DHT22;11262;50.308;9.270;2022-07-21T12:45:50;23.50;99.90
22194;DHT22;11262;50.308;9.270;2022-07-21T12:48:27;23.90;99.90
22194;DHT22;11262;50.308;9.270;2022-07-21T12:53:47;24.20;99.90
22194;DHT22;11262;50.308;9.270;2022-07-21T12:56:25;24.00;99.90
22194;DHT22;11262;50.308;9.270;2022-07-21T12:58:52;24.10;99.90
22194;DHT22;11262;50.308;9.270;2022-07-21T13:01:20;24.10;99.90
22194;DHT22;11262;50.308;9.270;2022-07-21T13:03:46;24.20;99.90
22194;DHT22;11262;50.308;9.270;2022-07-21T13:06:13;24.10;99.90
22194;DHT22;11262;50.308;9.270;2022-07-21T13:08:43;24.00;99.90
22194;DHT22;11262;50.308;9.270;2022-07-21T13:11:11;24.00;99.90
22194;DHT22;11262;50.308;9.270;2022-07-21T13:13:37;24.00;99.90
22194;DHT22;11262;50.308;9.270;2022-07-21T13:16:04;24.20;99.90
22194;DHT22;11262;50.308;9.270;2022-07-21T13:18:30;24.30;99.90
22194;DHT22;11262;50.308;9.270;2022-07-21T13:20:55;24.40;99.90
22194;DHT22;11262;50.308;9.270;2022-07-21T13:23:21;24.70;99.90
22194;DHT22;11262;50.308;9.270;2022-07-21T13:25:47;24.80;99.90
22194;DHT22;11262;50.308;9.270;2022-07-21T13:28:17;24.90;99.90
22194;DHT22;11262;50.308;9.270;2022-07-21T13:30:44;25.00;99.90
22194;DHT22;11262;50.308;9.270;2022-07-21T13:33:10;24.90;99.90
22194;DHT22;11262;50.308;9.270;2022-07-21T13:35:36;24.80;99.90
22194;DHT22;11262;50.308;9.270;2022-07-21T13:38:01;24.70;99.90
22194;DHT22;11262;50.308;9.270;2022-07-21T13:40:28;24.90;99.90
22194;DHT22;11262;50.308;9.270;2022-07-21T13:42:54;25.00;99.90
22194;DHT22;11262;50.308;9.270;2022-07-21T13:45:19;25.40;99.90
22194;DHT22;11262;50.308;9.270;2022-07-21T13:47:45;25.80;99.90
22194;DHT22;11262;50.308;9.270;2022-07-21T13:50:12;26.30;99.90
22194;DHT22;11262;50.308;9.270;2022-07-21T13:52:38;26.70;99.90
22194;DHT22;11262;50.308;9.270;2022-07-21T13:55:07;26.90;99.90
22194;DHT22;11262;50.308;9.270;2022-07-21T13:57:34;27.00;99.90
22194;DHT22;11262;50.308;9.270;2022-07-21T13:59:59;27.00;99.90
22194;DHT22;11262;50.308;9.270;2022-07-21T14:02:25;27.40;99.90
22194;DHT22;11262;50.308;9.270;2022-07-21T14:04:50;27.50;99.90
22194;DHT22;11262;50.308;9.270;2022-07-21T14:07:16;27.30;99.90
22194;DHT22;11262;50.308;9.270;2022-07-21T14:09:43;27.20;99.90
22194;DHT22;11262;50.308;9.270;2022-07-21T14:12:09;27.00;99.90
22194;DHT22;11262;50.308;9.270;2022-07-21T14:14:36;26.50;99.90
22194;DHT22;11262;50.308;9.270;2022-07-21T14:17:02;26.50;99.90
22194;DHT22;11262;50.308;9.270;2022-07-21T14:19:28;26.60;99.90
22194;DHT22;11262;50.308;9.270;2022-07-21T14:21:53;26.90;99.90
22194;DHT22;11262;50.308;9.270;2022-07-21T14:24:19;27.00;99.90
22194;DHT22;11262;50.308;9.270;2022-07-21T14:27:03;27.00;99.90
22194;DHT22;11262;50.308;9.270;2022-07-21T14:29:29;27.00;99.90
22194;DHT22;11262;50.308;9.270;2022-07-21T14:31:55;26.60;99.90
22194;DHT22;11262;50.308;9.270;2022-07-21T14:34:20;26.40;99.90
22194;DHT22;11262;50.308;9.270;2022-07-21T14:36:46;26.40;99.90
22194;DHT22;11262;50.308;9.270;2022-07-21T14:39:13;26.50;99.90
22194;DHT22;11262;50.308;9.270;2022-07-21T14:41:39;26.30;99.90
22194;DHT22;11262;50.308;9.270;2022-07-21T14:44:05;26.10;99.90
22194;DHT22;11262;50.308;9.270;2022-07-21T14:46:30;26.40;99.90
22194;DHT22;11262;50.308;9.270;2022-07-21T14:48:56;26.50;99.90
22194;DHT22;11262;50.308;9.270;2022-07-21T14:51:22;26.20;99.90
22194;DHT22;11262;50.308;9.270;2022-07-21T14:53:48;26.20;99.90
22194;DHT22;11262;50.308;9.270;2022-07-21T14:56:13;25.90;99.90
22194;DHT22;11262;50.308;9.270;2022-07-21T14:58:39;25.60;99.90
22194;DHT22;11262;50.308;9.270;2022-07-21T15:01:05;25.50;99.90
22194;DHT22;11262;50.308;9.270;2022-07-21T15:03:30;25.40;99.90
22194;DHT22;11262;50.308;9.270;2022-07-21T15:05:56;25.30;99.90
22194;DHT22;11262;50.308;9.270;2022-07-21T15:08:21;25.20;99.90
22194;DHT22;11262;50.308;9.270;2022-07-21T15:10:47;25.10;99.90
22194;DHT22;11262;50.308;9.270;2022-07-21T15:13:14;25.10;99.90
22194;DHT22;11262;50.308;9.270;2022-07-21T15:15:40;25.10;99.90
22194;DHT22;11262;50.308;9.270;2022-07-21T15:18:06;25.10;99.90
22194;DHT22;11262;50.308;9.270;2022-07-21T15:20:32;25.20;99.90
22194;DHT22;11262;50.308;9.270;2022-07-21T15:22:58;25.20;99.90
22194;DHT22;11262;50.308;9.270;2022-07-21T15:25:23;25.30;99.90
22194;DHT22;11262;50.308;9.270;2022-07-21T15:27:49;25.40;99.90
22194;DHT22;11262;50.308;9.270;2022-07-21T15:30:14;25.30;99.90
22194;DHT22;11262;50.308;9.270;2022-07-21T15:32:41;25.40;99.90
22194;DHT22;11262;50.308;9.270;2022-07-21T15:35:08;25.20;99.90
22194;DHT22;11262;50.308;9.270;2022-07-21T15:37:34;25.20;99.90
22194;DHT22;11262;50.308;9.270;2022-07-21T15:39:59;25.20;99.90
22194;DHT22;11262;50.308;9.270;2022-07-21T15:42:25;25.20;99.90
22194;DHT22;11262;50.308;9.270;2022-07-21T15:44:52;25.20;99.90
22194;DHT22;11262;50.308;9.270;2022-07-21T15:47:18;25.20;99.90
22194;DHT22;11262;50.308;9.270;2022-07-21T15:49:43;25.10;99.90
22194;DHT22;11262;50.308;9.270;2022-07-21T15:52:09;25.10;99.90
22194;DHT22;11262;50.308;9.270;2022-07-21T15:54:36;25.00;99.90
22194;DHT22;11262;50.308;9.270;2022-07-21T15:57:02;25.00;99.90
22194;DHT22;11262;50.308;9.270;2022-07-21T15:59:27;24.90;99.90
22194;DHT22;11262;50.308;9.270;2022-07-21T16:01:59;25.00;99.90
22194;DHT22;11262;50.308;9.270;2022-07-21T16:04:25;25.00;99.90
22194;DHT22;11262;50.308;9.270;2022-07-21T16:06:51;24.90;99.90
22194;DHT22;11262;50.308;9.270;2022-07-21T16:09:17;24.90;99.90
22194;DHT22;11262;50.308;9.270;2022-07-21T16:11:42;24.90;99.90
22194;DHT22;11262;50.308;9.270;2022-07-21T16:14:08;24.90;99.90
22194;DHT22;11262;50.308;9.270;2022-07-21T16:16:34;24.90;99.90
22194;DHT22;11262;50.308;9.270;2022-07-21T16:19:00;24.90;99.90
22194;DHT22;11262;50.308;9.270;2022-07-21T16:21:27;24.90;99.90